Latest Coastal Weather Observations for Port Kembla Harbour

IDN60701

Issued at 6:12 am EDT Sunday 1 February 2015 (issued every 10 minutes, with the page automatically refreshed every 10 minutes)

About coastal observations | Map of coastal stations | Coastal observations for NSW | Marine services | Other Formats
Station Details ID: 068253 Name: PORT KEMBLA NTC AWS Lat: -34.47 Lon: 150.91 Height: 0.0 m
Data from the previous 72 hours. | See also: Recent months for locations in New South Wales
Date/Time
EDT
Temp

°C
Wind Pressure Rain
since 9am
mm
Weather Cloud Vis
km
Sea
Height
m
Swell
Dir
 
Speed
knots
Gust
knots
hPa Trend Height
m
Period
s
Dir
01/06:00am 18.3 SW 3 4 1008.1 - - - - - - - - -
01/05:30am 18.0 WSW 4 5 1007.9 - - - - - - - - -
01/05:00am 18.3 W 3 3 1007.7 - - - - - - - - -
01/04:30am 18.6 SW 4 5 1007.7 - - - - - - - - -
01/04:00am 18.7 WSW 4 5 1007.7 - - - - - - - - -
01/03:30am 19.1 WSW 4 6 1007.6 - - - - - - - - -
01/03:00am 19.3 SW 4 6 1007.8 - - - - - - - - -
01/02:30am 19.8 WSW 4 5 1008.0 - - - - - - - - -
01/02:00am 20.0 WSW 4 5 1008.3 - - - - - - - - -
01/01:30am 20.1 SW 4 6 1008.4 - - - - - - - - -
01/01:00am 20.3 SW 4 6 1008.7 - - - - - - - - -
01/12:30am 20.5 SW 4 7 1009.0 - - - - - - - - -
01/12:00am 20.4 SW 6 9 1009.1 - - - - - - - - -
 
Date/Time
EDT
Temp

°C
Wind Pressure Rain
since 9am
mm
Weather Cloud Vis
km
Sea
Height
m
Swell
Dir
 
Speed
knots
Gust
knots
hPa Trend Height
m
Period
s
Dir
31/11:30pm 20.8 SW 5 7 1009.0 - - - - - - - - -
31/11:00pm 20.9 SW 4 6 1009.1 - - - - - - - - -
31/10:30pm 21.0 WSW 5 8 1009.0 - - - - - - - - -
31/10:00pm 21.6 SSW 4 6 1008.8 - - - - - - - - -
31/09:30pm 21.6 SSW 3 5 1008.5 - - - - - - - - -
31/09:00pm 21.6 SSE 2 4 1008.0 - - - - - - - - -
31/08:30pm 21.6 SSE 3 5 1007.6 - - - - - - - - -
31/08:00pm 21.7 SSE 3 6 1007.4 - - - - - - - - -
31/07:30pm 21.7 SE 4 6 1007.1 - - - - - - - - -
31/07:00pm 21.6 SE 6 7 1006.8 - - - - - - - - -
31/06:30pm 21.6 SE 6 9 1006.5 - - - - - - - - -
31/06:00pm 21.6 SE 8 11 1006.2 - - - - - - - - -
31/05:30pm 21.5 SE 7 10 1006.2 - - - - - - - - -
31/05:00pm 21.7 SE 7 10 1006.2 - - - - - - - - -
31/04:30pm 21.9 SE 8 10 1006.3 - - - - - - - - -
31/04:00pm 22.0 SE 6 10 1006.2 - - - - - - - - -
31/03:30pm 21.7 SE 7 9 1006.1 - - - - - - - - -
31/03:00pm 21.1 SE 8 11 1006.1 - - - - - - - - -
31/02:30pm 21.1 ESE 7 11 1006.1 - - - - - - - - -
31/02:00pm 20.9 ESE 7 10 1006.2 - - - - - - - - -
31/01:30pm 21.0 ESE 6 9 1006.3 - - - - - - - - -
31/01:00pm 20.9 ESE 7 11 1006.5 - - - - - - - - -
31/12:30pm 20.8 ESE 6 9 1006.8 - - - - - - - - -
31/12:00pm 20.9 ESE 5 9 1006.9 - - - - - - - - -
31/11:30am 21.1 E 4 7 1007.3 - - - - - - - - -
31/11:00am 21.0 ESE 4 6 1007.6 - - - - - - - - -
31/10:30am 20.6 ESE 5 7 1007.7 - - - - - - - - -
31/10:00am 21.1 SE 4 7 1007.8 - - - - - - - - -
31/09:30am 21.5 SE 2 4 1007.7 - - - - - - - - -
31/09:00am 21.0 NE 2 3 1007.7 - - - - - - - - -
31/08:30am 19.9 WNW 3 4 1007.5 - - - - - - - - -
31/08:00am 18.9 W 2 3 1007.4 - - - - - - - - -
31/07:30am 17.6 WSW 4 4 1007.1 - - - - - - - - -
31/07:00am 16.5 WSW 4 5 1006.9 - - - - - - - - -
31/06:30am 16.6 SW 3 4 1006.6 - - - - - - - - -
31/06:00am 16.8 WSW 3 4 1006.5 - - - - - - - - -
31/05:30am 17.5 WSW 3 4 1006.1 - - - - - - - - -
31/05:00am 17.9 WSW 4 5 1006.1 - - - - - - - - -
31/04:30am 17.7 WSW 5 5 1005.9 - - - - - - - - -
31/04:00am 18.0 WSW 4 6 1005.9 - - - - - - - - -
31/03:30am 18.2 SW 2 3 1006.0 - - - - - - - - -
31/03:00am 18.3 WSW 3 5 1006.2 - - - - - - - - -
31/02:30am 18.2 W 2 3 1006.2 - - - - - - - - -
31/02:00am 17.9 WSW 4 4 1006.3 - - - - - - - - -
31/01:30am 18.2 WSW 3 4 1006.5 - - - - - - - - -
31/01:00am 18.8 W 5 5 1006.8 - - - - - - - - -
31/12:30am 19.2 SW 6 9 1006.8 - - - - - - - - -
31/12:00am 18.9 SW 4 6 1007.0 - - - - - - - - -
 
Date/Time
EDT
Temp

°C
Wind Pressure Rain
since 9am
mm
Weather Cloud Vis
km
Sea
Height
m
Swell
Dir
 
Speed
knots
Gust
knots
hPa Trend Height
m
Period
s
Dir
30/11:30pm 19.1 SW 4 5 1007.1 - - - - - - - - -
30/11:00pm 19.4 SW 5 7 1007.3 - - - - - - - - -
30/10:30pm 19.8 SW 6 9 1007.3 - - - - - - - - -
30/10:00pm 20.1 SW 4 6 1007.2 - - - - - - - - -
30/09:30pm 20.7 SSW 5 11 1007.1 - - - - - - - - -
30/09:00pm 20.7 S 5 9 1006.9 - - - - - - - - -
30/08:30pm 20.9 S 7 13 1006.5 - - - - - - - - -
30/08:00pm 21.1 S 6 13 1006.1 - - - - - - - - -
30/07:30pm 21.5 S 8 14 1005.8 - - - - - - - - -
30/07:00pm 21.5 S 7 14 1005.6 - - - - - - - - -
30/06:30pm 21.9 S 7 17 1005.3 - - - - - - - - -
30/06:00pm 21.8 S 6 12 1005.1 - - - - - - - - -
30/05:30pm 21.6 SSE 7 13 1004.9 - - - - - - - - -
30/05:00pm 22.4 S 6 10 1004.8 - - - - - - - - -
30/04:30pm 22.4 S 7 15 1005.0 - - - - - - - - -
30/04:00pm 24.5 SSW 7 14 1004.8 - - - - - - - - -
30/03:30pm 24.3 SW 11 18 1004.9 - - - - - - - - -
30/03:00pm 23.7 SW 11 17 1005.1 - - - - - - - - -
30/02:30pm 23.2 S 4 9 1005.5 - - - - - - - - -
30/02:00pm 23.0 SW 10 18 1005.8 - - - - - - - - -
30/01:30pm 22.3 WSW 12 17 1006.3 - - - - - - - - -
30/01:00pm 20.7 WSW 11 16 1006.7 - - - - - - - - -
30/12:30pm 19.7 WSW 11 16 1007.3 - - - - - - - - -
30/12:00pm 19.5 WSW 12 18 1007.8 - - - - - - - - -
30/11:30am 19.4 WSW 13 20 1007.9 - - - - - - - - -
30/11:00am 19.7 WSW 12 20 1008.2 - - - - - - - - -
30/10:30am 19.6 WSW 14 23 1008.3 - - - - - - - - -
30/10:00am 19.3 WSW 14 21 1008.5 - - - - - - - - -
30/09:30am 19.0 WSW 14 21 1008.5 - - - - - - - - -
30/09:00am 18.8 WSW 15 20 1008.7 - - - - - - - - -
30/08:30am 18.3 WSW 14 20 1008.6 - - - - - - - - -
30/08:00am 18.0 WSW 13 17 1008.5 - - - - - - - - -
30/07:30am 17.8 WSW 11 17 1008.4 - - - - - - - - -
30/07:00am 17.6 WSW 11 17 1008.3 - - - - - - - - -
30/06:30am 17.3 WSW 10 17 1008.0 - - - - - - - - -
30/06:00am 17.3 SW 10 18 1007.8 - - - - - - - - -
30/05:30am 17.2 WSW 9 14 1007.9 - - - - - - - - -
30/05:00am 17.3 SW 8 12 1007.9 - - - - - - - - -
30/04:30am 17.4 WSW 11 18 1008.0 - - - - - - - - -
30/04:00am 17.5 WSW 12 18 1008.3 - - - - - - - - -
30/03:30am 17.7 SW 13 19 1008.5 - - - - - - - - -
30/03:00am 17.6 WSW 10 19 1008.6 - - - - - - - - -
30/02:30am 17.9 SW 11 19 1008.9 - - - - - - - - -
30/02:00am 18.1 SW 7 11 1009.1 - - - - - - - - -
30/01:30am 18.3 WSW 11 18 1009.6 - - - - - - - - -
30/01:00am 18.1 WSW 10 20 1010.0 - - - - - - - - -
30/12:30am 18.0 WSW 9 16 1010.5 - - - - - - - - -
30/12:00am 18.2 SW 9 15 1010.6 - - - - - - - - -
 
Date/Time
EDT
Temp

°C
Wind Pressure Rain
since 9am
mm
Weather Cloud Vis
km
Sea
Height
m
Swell
Dir
 
Speed
knots
Gust
knots
hPa Trend Height
m
Period
s
Dir
29/11:30pm 18.0 SW 10 15 1010.8 - - - - - - - - -
29/11:00pm 18.1 SW 9 15 1011.1 - - - - - - - - -
29/10:30pm 18.5 SW 11 24 1011.4 - - - - - - - - -
29/10:00pm 18.4 SW 10 16 1011.5 - - - - - - - - -
29/09:30pm 18.7 SW 11 18 1011.4 - - - - - - - - -
29/09:00pm 18.8 SW 10 18 1011.4 - - - - - - - - -
29/08:30pm 19.0 SW 11 19 1011.2 - - - - - - - - -
29/08:00pm 19.3 SW 13 24 1011.1 - - - - - - - - -
29/07:30pm 19.6 SW 11 20 1010.9 - - - - - - - - -
29/07:00pm 19.6 SW 11 19 1010.7 - - - - - - - - -
29/06:30pm 20.3 SSW 10 21 1010.4 - - - - - - - - -
29/06:00pm 20.8 SSW 11 19 1010.2 - - - - - - - - -
29/05:30pm 20.9 SSW 12 21 1010.2 - - - - - - - - -

Other Formats:

Comma delimited format used in spreadsheet applications
http://www.bom.gov.au/fwo/IDN60701/IDN60701.95745.axf

JavaScript Object Notation format (JSON) in row-major order
http://www.bom.gov.au/fwo/IDN60701/IDN60701.95745.json